In Rescue
 
Open Full Screen Window  High Contrast Mode
Wind Gusting 00 knots
03
September 19, 2019 4:34 PM CDT
Weather Information
Wind Direction
  250 °
Wind Speed
  03 kt (3 mph)
Wind Gust
  00 kt (0 mph)
Altimeter
30.00 in
Visibility
10 SM
Temperature
26° C
79° F
Dewpoint
15° C
59° F
Humidity
51%
1hr Rain Fall
00.00 in.
24hr Rain Fall
00.00 in.
Sky Condition
Clear
VFR

METAR KJMR 192134Z AUTO 25003KT 10SM CLR 26/15 A3000 RMK AO2

FAA Disclaimer: The data displayed is for advisory purposes only and is not to be used for flight planning or operations.